createdAt,value
2019-04-26T00:02:02.484Z,48.48
2019-04-26T00:04:31.143Z,48.84
2019-04-26T00:06:59.585Z,49.00
2019-04-26T00:09:30.226Z,48.85
2019-04-26T00:12:02.717Z,49.28
2019-04-26T00:14:35.340Z,49.34
2019-04-26T00:17:05.315Z,49.22
2019-04-26T00:19:34.316Z,49.27
2019-04-26T00:22:03.142Z,49.59
2019-04-26T00:24:31.926Z,49.45
2019-04-26T00:27:00.282Z,49.70
2019-04-26T00:29:28.655Z,49.97
2019-04-26T00:31:57.238Z,49.48
2019-04-26T00:34:25.537Z,49.34
2019-04-26T00:36:53.871Z,49.89
2019-04-26T00:39:24.799Z,50.95
2019-04-26T00:41:52.450Z,51.57
2019-04-26T00:44:21.079Z,50.92
2019-04-26T00:46:49.483Z,50.68
2019-04-26T00:49:19.207Z,50.64
2019-04-26T00:51:48.256Z,51.27
2019-04-26T00:54:16.698Z,51.19
2019-04-26T00:56:45.268Z,51.25
2019-04-26T00:59:14.889Z,51.15
2019-04-26T01:01:45.131Z,50.99
2019-04-26T01:04:14.387Z,51.17
2019-04-26T01:06:45.940Z,51.71
2019-04-26T01:09:15.928Z,51.78
2019-04-26T01:11:44.528Z,51.89
2019-04-26T01:14:13.095Z,52.16
2019-04-26T01:16:41.479Z,51.98
2019-04-26T01:19:11.674Z,52.21
2019-04-26T01:21:43.218Z,52.01
2019-04-26T01:24:13.048Z,51.98
2019-04-26T01:26:41.522Z,52.26
2019-04-26T01:29:11.654Z,52.86
2019-04-26T01:32:04.621Z,52.86
2019-04-26T01:34:33.661Z,53.26
2019-04-26T01:37:02.688Z,53.15
2019-04-26T01:39:32.061Z,53.26
2019-04-26T01:42:11.727Z,52.81
2019-04-26T01:44:50.391Z,52.68
2019-04-26T01:47:20.779Z,52.95
2019-04-26T01:49:49.482Z,51.96
2019-04-26T01:52:17.996Z,52.30
2019-04-26T01:54:46.870Z,52.54
2019-04-26T01:57:15.561Z,53.19
2019-04-26T01:59:48.748Z,53.24
2019-04-26T02:02:18.729Z,53.68
2019-04-26T02:04:55.227Z,54.50
2019-04-26T02:07:28.683Z,54.73
2019-04-26T02:09:57.079Z,55.33
2019-04-26T02:12:25.463Z,54.79
2019-04-26T02:14:53.826Z,55.00
2019-04-26T02:17:22.969Z,55.16
2019-04-26T02:19:52.537Z,54.95
2019-04-26T02:22:25.897Z,54.87
2019-04-26T02:24:55.165Z,55.25
2019-04-26T02:27:26.159Z,54.82
2019-04-26T02:29:55.011Z,54.36
2019-04-26T02:32:23.452Z,54.04
2019-04-26T02:34:51.906Z,54.13
2019-04-26T02:37:20.280Z,54.27
2019-04-26T02:39:49.133Z,54.23
2019-04-26T02:42:34.295Z,54.43
2019-04-26T02:45:22.296Z,54.70
2019-04-26T02:48:11.085Z,54.90
2019-04-26T02:50:41.219Z,55.24
2019-04-26T02:53:35.453Z,55.43
2019-04-26T02:56:09.695Z,55.81
2019-04-26T02:58:46.899Z,55.52
2019-04-26T03:01:15.368Z,56.00
2019-04-26T03:03:43.966Z,56.32
2019-04-26T03:06:12.549Z,56.45
2019-04-26T03:08:42.646Z,56.27
2019-04-26T03:11:17.227Z,56.28
2019-04-26T03:13:56.867Z,55.90
2019-04-26T03:16:50.444Z,55.64
2019-04-26T03:19:23.570Z,55.65
2019-04-26T03:22:00.905Z,56.14
2019-04-26T03:24:36.784Z,56.36
2019-04-26T03:27:08.066Z,56.15
2019-04-26T03:29:51.859Z,56.53
2019-04-26T03:32:46.124Z,56.54
2019-04-26T03:35:36.964Z,56.32
2019-04-26T03:38:34.469Z,56.07
2019-04-26T03:41:13.653Z,56.15
2019-04-26T03:43:51.152Z,55.95
2019-04-26T03:46:34.957Z,56.04
2019-04-26T03:49:22.913Z,56.27
2019-04-26T03:52:12.517Z,56.11
2019-04-26T03:54:42.823Z,56.32
2019-04-26T03:57:22.089Z,56.36
2019-04-26T03:59:57.919Z,56.24
2019-04-26T04:02:50.853Z,56.28
2019-04-26T04:05:26.568Z,56.09
2019-04-26T04:07:56.484Z,55.75
2019-04-26T04:10:30.499Z,55.92
2019-04-26T04:13:04.488Z,56.17
2019-04-26T04:15:44.072Z,56.38
2019-04-26T04:18:17.041Z,56.29
2019-04-26T04:20:56.131Z,56.36
2019-04-26T04:23:43.520Z,56.28
2019-04-26T04:26:14.472Z,56.64
2019-04-26T04:29:03.512Z,57.00
2019-04-26T04:31:59.159Z,56.95
2019-04-26T04:34:36.454Z,56.52
2019-04-26T04:37:06.590Z,56.89
2019-04-26T04:39:48.531Z,56.89
2019-04-26T04:42:29.854Z,57.01
2019-04-26T04:45:32.637Z,56.75
2019-04-26T04:48:16.928Z,56.62
2019-04-26T04:51:04.837Z,56.93
2019-04-26T04:54:02.475Z,56.92
2019-04-26T04:56:56.668Z,56.75
2019-04-26T04:59:33.708Z,56.39
2019-04-26T05:02:12.845Z,56.14
2019-04-26T05:04:46.837Z,56.04
2019-04-26T05:07:25.927Z,56.06
2019-04-26T05:10:17.200Z,55.97
2019-04-26T05:12:54.594Z,56.24
2019-04-26T05:15:59.752Z,56.55
2019-04-26T05:18:56.623Z,56.80
2019-04-26T05:21:45.347Z,56.67
2019-04-26T05:24:22.147Z,56.50
2019-04-26T05:27:26.903Z,56.59
2019-04-26T05:30:16.670Z,56.38
2019-04-26T05:33:09.091Z,56.39
2019-04-26T05:36:05.749Z,56.46
2019-04-26T05:38:49.414Z,56.18
2019-04-26T05:41:23.459Z,56.53
2019-04-26T05:44:21.984Z,56.43
2019-04-26T05:47:03.249Z,56.79
2019-04-26T05:50:06.472Z,56.92
2019-04-26T05:53:05.167Z,56.77
2019-04-26T05:56:02.475Z,56.90
2019-04-26T05:59:04.349Z,57.21
2019-04-26T06:02:24.525Z,57.18
2019-04-26T06:05:26.112Z,57.24
2019-04-26T06:08:39.453Z,57.22
2019-04-26T06:11:15.272Z,57.70
2019-04-26T06:13:57.840Z,57.70
2019-04-26T06:16:55.302Z,57.92
2019-04-26T06:19:42.927Z,58.06
2019-04-26T06:22:32.337Z,58.42
2019-04-26T06:25:33.796Z,58.19
2019-04-26T06:28:06.143Z,58.02
2019-04-26T06:30:45.271Z,58.26
2019-04-26T06:33:16.435Z,58.50
2019-04-26T06:35:47.709Z,58.95
2019-04-26T06:39:02.148Z,59.11
2019-04-26T06:42:05.370Z,59.23
2019-04-26T06:44:41.107Z,60.07
2019-04-26T06:47:33.199Z,59.90
2019-04-26T06:50:11.889Z,61.56
2019-04-26T06:52:52.399Z,62.25
2019-04-26T06:55:23.916Z,62.44
2019-04-26T06:58:14.548Z,62.57
2019-04-26T07:00:59.804Z,62.49
2019-04-26T07:03:34.430Z,62.51
2019-04-26T07:06:06.615Z,63.15
2019-04-26T07:08:39.993Z,63.32
2019-04-26T07:11:31.266Z,63.24
2019-04-26T07:14:37.046Z,63.71
2019-04-26T07:17:12.127Z,64.18
2019-04-26T07:20:04.544Z,64.49
2019-04-26T07:23:01.991Z,64.17
2019-04-26T07:25:55.267Z,64.90
2019-04-26T07:28:48.615Z,64.26
2019-04-26T07:31:44.404Z,64.50
2019-04-26T07:34:41.411Z,64.92
2019-04-26T07:37:38.355Z,64.35
2019-04-26T07:40:29.040Z,64.60
2019-04-26T07:43:11.143Z,64.92
2019-04-26T07:46:05.869Z,65.19
2019-04-26T07:48:52.679Z,65.41
2019-04-26T07:51:40.935Z,65.56
2019-04-26T07:54:33.507Z,66.17
2019-04-26T07:57:43.331Z,66.44
2019-04-26T08:00:21.149Z,66.28
2019-04-26T08:03:24.494Z,67.26
2019-04-26T08:06:05.763Z,67.20
2019-04-26T08:08:39.830Z,67.06
2019-04-26T08:11:19.726Z,66.94
2019-04-26T08:13:56.750Z,67.24
2019-04-26T08:16:46.270Z,66.51
2019-04-26T08:19:17.801Z,66.20
2019-04-26T08:21:49.121Z,65.85
2019-04-26T08:24:21.453Z,65.97
2019-04-26T08:27:17.888Z,66.01
2019-04-26T08:29:40.411Z,65.89
2019-04-26T08:32:11.761Z,65.98
2019-04-26T08:34:43.539Z,65.35
2019-04-26T08:37:14.826Z,65.37
2019-04-26T08:39:47.613Z,65.11
2019-04-26T08:42:20.865Z,64.62
2019-04-26T08:44:51.141Z,64.96
2019-04-26T08:47:30.359Z,65.42
2019-04-26T08:50:12.181Z,64.71
2019-04-26T08:52:41.492Z,64.82
2019-04-26T08:55:10.865Z,65.96
2019-04-26T08:57:40.980Z,65.55
2019-04-26T09:00:15.462Z,66.60
2019-04-26T09:02:55.853Z,67.06
2019-04-26T09:05:49.821Z,66.86
2019-04-26T09:08:17.414Z,66.22
2019-04-26T09:10:48.006Z,66.11
2019-04-26T09:13:18.092Z,66.97
2019-04-26T09:16:07.333Z,67.27
2019-04-26T09:18:43.058Z,67.25
2019-04-26T09:21:05.949Z,68.38
2019-04-26T09:23:52.454Z,67.81
2019-04-26T09:26:42.343Z,69.01
2019-04-26T09:29:17.994Z,69.63
2019-04-26T09:31:50.377Z,69.50
2019-04-26T09:34:33.941Z,69.78
2019-04-26T09:37:02.347Z,70.71
2019-04-26T09:39:30.886Z,72.46
2019-04-26T09:42:12.958Z,71.16
2019-04-26T09:44:52.204Z,73.57
2019-04-26T09:47:24.907Z,73.37
2019-04-26T09:50:14.884Z,73.18
2019-04-26T09:52:51.589Z,73.17
2019-04-26T09:55:20.152Z,71.29
2019-04-26T09:57:48.583Z,71.77
2019-04-26T10:00:19.170Z,72.54
2019-04-26T10:02:47.484Z,71.75
2019-04-26T10:05:17.530Z,71.55
2019-04-26T10:07:46.229Z,71.08
2019-04-26T10:10:22.801Z,70.42
2019-04-26T10:13:05.828Z,70.44
2019-04-26T10:15:51.884Z,70.72
2019-04-26T10:18:24.305Z,70.92
2019-04-26T10:20:51.810Z,69.86
2019-04-26T10:23:20.354Z,70.91
2019-04-26T10:25:52.124Z,71.21
2019-04-26T10:28:19.069Z,71.85
2019-04-26T10:30:47.369Z,71.62
2019-04-26T10:33:15.952Z,71.02
2019-04-26T10:35:44.357Z,71.91
2019-04-26T10:38:12.822Z,71.89
2019-04-26T10:40:41.328Z,71.84
2019-04-26T10:43:11.459Z,72.33
2019-04-26T10:45:40.161Z,71.20
2019-04-26T10:48:09.665Z,71.75
2019-04-26T10:50:38.803Z,71.80
2019-04-26T10:53:25.554Z,71.70
2019-04-26T10:56:12.053Z,70.49
2019-04-26T10:58:42.098Z,71.78
2019-04-26T11:01:12.266Z,71.20
2019-04-26T11:03:40.645Z,71.31
2019-04-26T11:06:09.235Z,71.55
2019-04-26T11:08:37.588Z,72.18
2019-04-26T11:11:08.130Z,72.59
2019-04-26T11:13:36.776Z,72.74
2019-04-26T11:16:07.245Z,72.58
2019-04-26T11:18:35.742Z,72.87
2019-04-26T11:21:04.263Z,73.95
2019-04-26T11:23:32.784Z,74.85
2019-04-26T11:26:02.777Z,74.14
2019-04-26T11:28:31.280Z,73.70
2019-04-26T11:30:59.778Z,74.13
2019-04-26T11:33:28.216Z,73.79
2019-04-26T11:35:56.573Z,73.15
2019-04-26T11:38:27.032Z,72.46
2019-04-26T11:41:05.930Z,73.94
2019-04-26T11:43:25.698Z,72.94
2019-04-26T11:46:03.761Z,72.89
2019-04-26T11:48:25.476Z,72.93
2019-04-26T11:50:54.243Z,72.78
2019-04-26T11:53:22.588Z,72.26
2019-04-26T11:55:51.139Z,71.75
2019-04-26T11:58:22.574Z,71.54
2019-04-26T12:00:51.377Z,72.37
2019-04-26T12:03:21.208Z,72.46
2019-04-26T12:05:52.516Z,72.99
2019-04-26T12:08:22.563Z,73.17
2019-04-26T12:10:51.063Z,73.37
2019-04-26T12:13:21.298Z,72.58
2019-04-26T12:15:50.084Z,72.07
2019-04-26T12:18:18.505Z,72.37
2019-04-26T12:20:47.098Z,70.99
2019-04-26T12:23:20.514Z,70.37
2019-04-26T12:25:48.040Z,70.82
2019-04-26T12:28:15.854Z,70.32
2019-04-26T12:30:44.593Z,69.22
2019-04-26T12:33:12.979Z,67.23
2019-04-26T12:35:41.368Z,67.55
2019-04-26T12:38:09.752Z,69.27
2019-04-26T12:40:38.071Z,67.98
2019-04-26T12:43:06.471Z,67.25
2019-04-26T12:45:54.737Z,67.63
2019-04-26T12:48:24.824Z,66.23
2019-04-26T12:50:53.335Z,67.03
2019-04-26T12:53:21.683Z,67.48
2019-04-26T12:55:53.265Z,66.44
2019-04-26T12:58:20.221Z,67.12
2019-04-26T13:00:54.293Z,67.78
2019-04-26T13:03:20.484Z,67.86
2019-04-26T13:05:49.762Z,68.19
2019-04-26T13:08:19.273Z,68.92
2019-04-26T13:10:49.215Z,67.93
2019-04-26T13:13:22.382Z,69.11
2019-04-26T13:16:10.768Z,69.46
2019-04-26T13:18:41.136Z,70.51
2019-04-26T13:21:09.879Z,70.06
2019-04-26T13:23:38.461Z,70.73
2019-04-26T13:26:06.962Z,70.60
2019-04-26T13:28:35.821Z,70.51
2019-04-26T13:31:04.288Z,70.51
2019-04-26T13:33:32.595Z,70.46
2019-04-26T13:36:03.220Z,70.39
2019-04-26T13:38:31.359Z,71.21
2019-04-26T13:41:04.767Z,71.97
2019-04-26T13:43:30.147Z,71.63
2019-04-26T13:46:06.080Z,71.00
2019-04-26T13:48:39.145Z,71.75
2019-04-26T13:51:17.756Z,71.40
2019-04-26T13:53:46.119Z,71.21
2019-04-26T13:56:14.591Z,71.90
2019-04-26T13:58:42.917Z,72.34
2019-04-26T14:01:14.623Z,72.48
2019-04-26T14:03:42.878Z,73.00
2019-04-26T14:06:11.325Z,73.38
2019-04-26T14:08:39.642Z,73.56
2019-04-26T14:11:08.285Z,72.96
2019-04-26T14:13:36.695Z,73.44
2019-04-26T14:16:05.557Z,72.92
2019-04-26T14:18:34.616Z,73.17
2019-04-26T14:21:03.916Z,72.73
2019-04-26T14:23:40.158Z,73.01
2019-04-26T14:26:13.725Z,72.53
2019-04-26T14:28:42.311Z,70.73
2019-04-26T14:31:12.162Z,70.32
2019-04-26T14:33:40.879Z,70.08
2019-04-26T14:36:17.761Z,69.66
2019-04-26T14:38:41.253Z,69.22
2019-04-26T14:41:13.055Z,68.47
2019-04-26T14:43:41.487Z,67.20
2019-04-26T14:46:14.528Z,67.31
2019-04-26T14:48:44.652Z,68.26
2019-04-26T14:51:16.819Z,69.19
2019-04-26T14:53:44.073Z,69.57
2019-04-26T14:56:12.451Z,69.05
2019-04-26T14:58:42.319Z,68.73
2019-04-26T15:01:12.513Z,68.43
2019-04-26T15:03:45.563Z,68.46
2019-04-26T15:06:16.831Z,68.41
2019-04-26T15:08:48.671Z,68.90
2019-04-26T15:11:16.115Z,68.99
2019-04-26T15:13:44.511Z,67.59
2019-04-26T15:16:14.324Z,67.46
2019-04-26T15:18:42.849Z,67.92
2019-04-26T15:21:12.888Z,67.08
2019-04-26T15:23:41.302Z,67.40
2019-04-26T15:26:09.708Z,66.65
2019-04-26T15:28:38.096Z,67.01
2019-04-26T15:31:06.783Z,67.40
2019-04-26T15:33:35.990Z,67.04
2019-04-26T15:36:06.304Z,66.10
2019-04-26T15:38:41.385Z,66.10
2019-04-26T15:41:14.580Z,65.85
2019-04-26T15:43:50.207Z,66.02
2019-04-26T15:46:36.150Z,66.35
2019-04-26T15:49:12.526Z,66.06
2019-04-26T15:51:42.738Z,66.23
2019-04-26T15:54:11.008Z,65.69
2019-04-26T15:56:39.406Z,64.60
2019-04-26T15:59:08.105Z,63.94
2019-04-26T16:01:36.481Z,63.80
2019-04-26T16:04:06.583Z,63.39
2019-04-26T16:06:37.490Z,63.45
2019-04-26T16:09:08.156Z,63.80
2019-04-26T16:11:37.303Z,63.45
2019-04-26T16:14:05.691Z,63.72
2019-04-26T16:16:34.664Z,63.83
2019-04-26T16:19:03.305Z,63.86
2019-04-26T16:21:32.334Z,63.63
2019-04-26T16:24:02.668Z,63.81
2019-04-26T16:26:32.790Z,64.32
2019-04-26T16:29:06.024Z,64.48
2019-04-26T16:31:48.528Z,64.37
2019-04-26T16:34:24.592Z,64.54
2019-04-26T16:36:52.993Z,64.98
2019-04-26T16:39:23.253Z,65.45
2019-04-26T16:41:52.409Z,64.99
2019-04-26T16:44:29.382Z,64.67
2019-04-26T16:47:00.605Z,65.55
2019-04-26T16:49:23.396Z,65.82
2019-04-26T16:52:01.631Z,65.78
2019-04-26T16:54:26.543Z,66.41
2019-04-26T16:56:52.737Z,66.21
2019-04-26T16:59:24.010Z,65.74
2019-04-26T17:01:53.179Z,65.41
2019-04-26T17:04:28.639Z,65.62
2019-04-26T17:06:52.953Z,65.83
2019-04-26T17:09:23.603Z,66.00
2019-04-26T17:11:52.411Z,65.91
2019-04-26T17:14:22.439Z,66.02
2019-04-26T17:16:53.049Z,65.94
2019-04-26T17:19:22.650Z,65.77
2019-04-26T17:21:56.499Z,65.80
2019-04-26T17:24:25.537Z,65.71
2019-04-26T17:26:55.719Z,65.41
2019-04-26T17:29:24.284Z,65.55
2019-04-26T17:31:52.659Z,65.42
2019-04-26T17:34:22.548Z,65.70
2019-04-26T17:36:52.254Z,65.86
2019-04-26T17:39:22.627Z,65.77
2019-04-26T17:41:54.165Z,65.80
2019-04-26T17:44:26.425Z,65.65
2019-04-26T17:46:56.272Z,65.73
2019-04-26T17:49:27.390Z,65.80
2019-04-26T17:51:58.010Z,65.81
2019-04-26T17:54:41.784Z,65.86
2019-04-26T17:56:52.404Z,65.85
2019-04-26T17:59:32.573Z,66.30
2019-04-26T18:02:00.147Z,66.37
2019-04-26T18:04:31.972Z,66.21
2019-04-26T18:06:57.830Z,65.97
2019-04-26T18:09:40.590Z,65.94
2019-04-26T18:11:55.292Z,66.11
2019-04-26T18:14:25.573Z,66.27
2019-04-26T18:16:57.196Z,66.25
2019-04-26T18:19:34.346Z,66.04
2019-04-26T18:22:14.651Z,65.90
2019-04-26T18:24:43.239Z,65.93
2019-04-26T18:27:11.615Z,65.96
2019-04-26T18:29:40.196Z,65.69
2019-04-26T18:32:08.668Z,65.55
2019-04-26T18:34:40.444Z,65.35
2019-04-26T18:37:07.608Z,65.47
2019-04-26T18:39:36.093Z,65.73
2019-04-26T18:42:05.970Z,65.57
2019-04-26T18:44:38.616Z,65.62
2019-04-26T18:47:06.275Z,65.57
2019-04-26T18:49:34.692Z,65.74
2019-04-26T18:52:03.771Z,65.61
2019-04-26T18:54:34.633Z,65.71
2019-04-26T18:57:03.371Z,65.63
2019-04-26T18:59:31.694Z,65.74
2019-04-26T19:02:00.237Z,65.82
2019-04-26T19:04:28.562Z,65.72
2019-04-26T19:06:56.988Z,65.59
2019-04-26T19:09:26.343Z,65.80
2019-04-26T19:11:56.212Z,65.68
2019-04-26T19:14:26.739Z,65.82
2019-04-26T19:16:59.555Z,65.40
2019-04-26T19:19:31.421Z,65.40
2019-04-26T19:22:03.234Z,65.15
2019-04-26T19:24:31.952Z,65.29
2019-04-26T19:27:01.777Z,65.66
2019-04-26T19:29:34.429Z,65.58
2019-04-26T19:32:04.096Z,65.79
2019-04-26T19:34:31.362Z,66.20
2019-04-26T19:37:01.613Z,66.44
2019-04-26T19:39:33.217Z,66.52
2019-04-26T19:42:00.076Z,66.51
2019-04-26T19:44:28.617Z,66.55
2019-04-26T19:47:12.302Z,66.58
2019-04-26T19:49:45.267Z,66.59
2019-04-26T19:52:22.135Z,66.36
2019-04-26T19:54:53.058Z,66.50
2019-04-26T19:57:39.234Z,66.53
2019-04-26T20:00:09.391Z,66.28
2019-04-26T20:02:39.461Z,66.48
2019-04-26T20:05:08.001Z,66.43
2019-04-26T20:07:36.386Z,66.15
2019-04-26T20:10:05.643Z,66.46
2019-04-26T20:12:37.963Z,66.35
2019-04-26T20:15:06.531Z,66.35
2019-04-26T20:17:34.911Z,66.50
2019-04-26T20:20:16.514Z,66.61
2019-04-26T20:22:34.463Z,66.35
2019-04-26T20:25:03.780Z,66.25
2019-04-26T20:27:32.459Z,66.46
2019-04-26T20:30:02.399Z,66.46
2019-04-26T20:32:32.497Z,66.76
2019-04-26T20:35:19.876Z,66.91
2019-04-26T20:37:47.480Z,66.74
2019-04-26T20:40:21.718Z,67.10
2019-04-26T20:42:46.210Z,67.01
2019-04-26T20:45:16.977Z,66.83
2019-04-26T20:47:46.735Z,66.69
2019-04-26T20:50:15.126Z,67.02
2019-04-26T20:52:45.332Z,66.85
2019-04-26T20:55:13.950Z,67.13
2019-04-26T20:57:44.602Z,67.17
2019-04-26T21:00:13.110Z,67.36
2019-04-26T21:02:41.434Z,67.41
2019-04-26T21:05:11.424Z,67.55
2019-04-26T21:07:41.706Z,67.65
2019-04-26T21:10:14.956Z,67.76
2019-04-26T21:12:41.875Z,67.67
2019-04-26T21:15:11.627Z,67.54
2019-04-26T21:17:41.525Z,67.58
2019-04-26T21:20:10.006Z,67.89
2019-04-26T21:22:38.427Z,67.63
2019-04-26T21:25:22.193Z,67.87
2019-04-26T21:27:52.134Z,67.97
2019-04-26T21:30:29.499Z,67.97
2019-04-26T21:32:59.607Z,67.88
2019-04-26T21:38:33.906Z,68.20
2019-04-26T21:41:14.064Z,68.04
2019-04-26T21:43:43.836Z,68.13
2019-04-26T21:46:18.675Z,67.81
2019-04-26T21:48:44.535Z,68.05
2019-04-26T21:51:15.949Z,68.15
2019-04-26T21:53:45.165Z,68.11
2019-04-26T21:56:14.756Z,67.95
2019-04-26T21:58:43.580Z,67.83
2019-04-26T22:01:18.947Z,67.98
2019-04-26T22:03:53.555Z,67.88
2019-04-26T22:06:19.780Z,68.09
2019-04-26T22:08:48.640Z,68.02
2019-04-26T22:11:20.034Z,67.91
2019-04-26T22:14:03.679Z,67.88
2019-04-26T22:16:35.975Z,67.75
2019-04-26T22:19:05.791Z,67.77
2019-04-26T22:21:52.764Z,67.61
2019-04-26T22:24:23.381Z,67.58
2019-04-26T22:26:53.223Z,67.52
2019-04-26T22:29:22.984Z,67.59
2019-04-26T22:31:54.584Z,67.67
2019-04-26T22:34:23.567Z,67.73
2019-04-26T22:36:53.622Z,67.53
2019-04-26T22:39:23.197Z,67.67
2019-04-26T22:41:53.423Z,67.91
2019-04-26T22:44:26.421Z,67.86
2019-04-26T22:47:10.478Z,67.76
2019-04-26T22:49:41.669Z,67.78
2019-04-26T22:52:11.285Z,67.89
2019-04-26T22:54:42.799Z,67.58
2019-04-26T22:57:13.198Z,67.36
2019-04-26T22:59:43.244Z,67.49
2019-04-26T23:02:13.533Z,67.33
2019-04-26T23:04:41.627Z,67.33
2019-04-26T23:07:10.869Z,67.19
2019-04-26T23:09:39.558Z,67.14
2019-04-26T23:12:25.142Z,67.25
2019-04-26T23:14:59.313Z,67.17
2019-04-26T23:17:31.329Z,67.07
2019-04-26T23:20:02.937Z,67.35
2019-04-26T23:22:33.662Z,66.92
2019-04-26T23:25:03.495Z,66.73
2019-04-26T23:27:33.342Z,66.85
2019-04-26T23:30:03.761Z,66.95
2019-04-26T23:32:33.799Z,66.98
2019-04-26T23:35:05.178Z,66.86
2019-04-26T23:37:32.433Z,66.89
2019-04-26T23:40:00.934Z,66.95
2019-04-26T23:42:29.406Z,66.93
2019-04-26T23:44:57.701Z,67.00
2019-04-26T23:47:26.015Z,66.80
2019-04-26T23:49:56.921Z,66.67
2019-04-26T23:52:24.621Z,66.69
2019-04-26T23:54:53.075Z,66.46
2019-04-26T23:57:21.600Z,66.58
2019-04-26T23:59:51.019Z,66.67
